Погода Горбаткана 2 недели

Могилёвская область, Белоруссия

24 мая-06 июня
  • 24мая
    Сегодня
    +9°
    +22°
    Ясно и безоблачно
    ВремяПогодаТемператураВлажностьДавлениеВетер, м/сВероятность осадков
    00:00Ясно и безоблачно+14°C53 %756 мм4.6 м/с2 %
    03:00Ясно и безоблачно+11°C55 %757 мм4.6 м/с2 %
    06:00Ясно и безоблачно+10°C56 %758 мм4.4 м/с2 %
    09:00Ясно и безоблачно+16°C52 %758 мм4.9 м/с2 %
    12:00Ясно и безоблачно+20°C41 %758 мм5.1 м/с2 %
    15:00Ясно и безоблачно+22°C36 %758 мм4.9 м/с2 %
    18:00Ясно и безоблачно+21°C38 %757 мм4.7 м/с2 %
    21:00Ясно и безоблачно+16°C52 %758 мм3.2 м/с2 %
  • 25мая
    Суббота
    +10°
    +24°
    Ясно и безоблачно
    ВремяПогодаТемператураВлажностьДавлениеВетер, м/сВероятность осадков
    00:00Ясно и безоблачно+12°C58 %758 мм3.5 м/с2 %
    03:00Ясно и безоблачно+11°C61 %758 мм3.5 м/с2 %
    06:00Ясно и безоблачно+10°C64 %758 мм3.1 м/с2 %
    09:00Ясно и безоблачно+17°C53 %758 мм3.0 м/с2 %
    12:00Ясно и безоблачно+22°C42 %758 мм2.9 м/с2 %
    15:00Ясно и безоблачно+23°C37 %757 мм2.8 м/с2 %
    18:00Ясно и безоблачно+23°C38 %756 мм2.8 м/с2 %
    21:00Ясно и безоблачно+17°C61 %755 мм2.2 м/с2 %
  • 26мая
    Воскресенье
    +11°
    +25°
    Небольшая облачность
    ВремяПогодаТемператураВлажностьДавлениеВетер, м/сВероятность осадков
    00:00Ясно и безоблачно+13°C66 %755 мм2.3 м/с2 %
    03:00Практически безоблачно+10°C72 %755 мм2.8 м/с2 %
    06:00Облачно с прояснениями+11°C72 %755 мм0.4 м/с2 %
    09:00Облачно с прояснениями+18°C56 %756 мм0.5 м/с2 %
    12:00Облачно с прояснениями+22°C39 %756 мм1.2 м/с2 %
    15:00Небольшая облачность+24°C35 %755 мм1.8 м/с2 %
    18:00Ясно и безоблачно+24°C33 %754 мм2.4 м/с2 %
    21:00Ясно и безоблачно+18°C57 %754 мм2.3 м/с2 %
  • 27мая
    Понедельник
    +12°
    +25°
    Небольшая облачность и лёгкий дождик
    ВремяПогодаТемператураВлажностьДавлениеВетер, м/сВероятность осадков
    00:00Ясно и безоблачно+14°C74 %754 мм2.7 м/с2 %
    03:00Ясно и безоблачно+12°C81 %754 мм2.4 м/с2 %
    06:00Ясно и безоблачно+13°C80 %755 мм0.6 м/с2 %
    09:00Ясно и безоблачно+20°C59 %755 мм1.0 м/с2 %
    12:00Ясно и безоблачно+25°C40 %755 мм1.6 м/с2 %
    15:00Небольшая облачность и лёгкий дождик+25°C39 %754 мм2.1 м/с14 %
    18:00Практически безоблачно+24°C41 %754 мм1.8 м/с23 %
    21:00Ясно и безоблачно+20°C64 %754 мм2.0 м/с3 %
  • 28мая
    Вторник
    +13°
    +25°
    Практически безоблачно
    ВремяПогодаТемператураВлажностьДавлениеВетер, м/сВероятность осадков
    00:00Ясно и безоблачно+16°C74 %754 мм2.2 м/с2 %
    03:00Ясно и безоблачно+13°C85 %754 мм2.1 м/с2 %
    06:00Ясно и безоблачно+13°C87 %754 мм2.4 м/с2 %
    09:00Ясно и безоблачно+20°C66 %754 мм2.3 м/с2 %
    12:00Практически безоблачно+24°C49 %754 мм2.9 м/с2 %
    15:00Практически безоблачно+25°C46 %753 мм2.2 м/с2 %
    18:00Практически безоблачно+24°C45 %752 мм2.2 м/с9 %
    21:00Ясно и безоблачно+20°C65 %752 мм2.3 м/с4 %
Мы используем cookies
Соглашаюсь